Time;durP1;ratioP1;P1;durP2;ratioP2;P2;SDS_P1;SDS_P2;PMS_P1;PMS_P2;Temp;Humidity;BMP_temperature;BMP_pressure;BME280_temperature;BME280_humidity;BME280_pressure;Samples;Min_cycle;Max_cycle;Signal;HPM_P1;HPM_P2
2021/04/16 00:02:36;;;;;;;4.57;0.60;;;19.30;43.90;;;;;;20934909;28;20033;-23
2021/04/16 00:12:37;;;;;;;1.67;0.95;;;19.30;43.80;;;;;;20912015;28;20025;-23
2021/04/16 00:22:37;;;;;;;1.63;0.73;;;19.20;43.60;;;;;;20884913;28;20025;-24
2021/04/16 00:32:38;;;;;;;2.15;0.60;;;19.10;43.60;;;;;;20908467;28;20638;-23
2021/04/16 00:42:40;;;;;;;4.25;0.40;;;19.00;43.50;;;;;;20908012;28;20086;-23
2021/04/16 00:52:40;;;;;;;2.55;0.73;;;19.00;43.40;;;;;;20892401;28;20098;-23
2021/04/16 01:02:41;;;;;;;1.17;0.65;;;19.00;43.40;;;;;;20856752;28;20056;-23
2021/04/16 01:12:42;;;;;;;2.88;0.50;;;18.90;43.30;;;;;;20891834;28;20025;-23
2021/04/16 01:23:03;;;;;;;1.67;0.35;;;18.90;43.20;;;;;;20888671;28;20390;-23
2021/04/16 01:33:03;;;;;;;1.25;0.50;;;18.90;43.20;;;;;;20886359;28;20079;-23
2021/04/16 01:43:16;;;;;;;1.42;0.50;;;18.80;43.00;;;;;;20880405;28;20029;-23
2021/04/16 01:53:17;;;;;;;1.33;0.30;;;18.80;43.00;;;;;;20863688;28;20030;-23
2021/04/16 02:03:18;;;;;;;1.00;0.20;;;18.80;42.90;;;;;;20870267;28;20712;-23
2021/04/16 02:13:19;;;;;;;1.92;0.60;;;18.70;42.80;;;;;;20868527;28;20436;-23
2021/04/16 02:23:20;;;;;;;2.38;0.30;;;18.70;42.70;;;;;;20874120;28;20493;-23
2021/04/16 02:33:20;;;;;;;1.42;0.32;;;18.60;42.70;;;;;;20899178;28;20044;-23
2021/04/16 02:43:21;;;;;;;1.55;0.30;;;18.70;42.70;;;;;;20893821;28;20026;-23
2021/04/16 02:53:21;;;;;;;0.82;0.32;;;18.60;42.60;;;;;;20878766;28;20212;-24
2021/04/16 03:03:22;;;;;;;3.70;0.60;;;18.60;42.50;;;;;;20870446;28;20032;-23
2021/04/16 03:13:23;;;;;;;1.75;0.35;;;18.60;43.00;;;;;;20881346;28;20049;-23
2021/04/16 03:23:23;;;;;;;2.58;0.50;;;18.50;42.40;;;;;;20880855;28;20447;-23
2021/04/16 03:33:24;;;;;;;1.38;0.43;;;18.50;42.30;;;;;;20896775;28;20033;-24
2021/04/16 03:43:25;;;;;;;1.00;0.35;;;18.50;42.80;;;;;;20899732;28;20178;-23
2021/04/16 03:53:26;;;;;;;0.90;0.43;;;18.50;42.20;;;;;;20911477;28;20056;-23
2021/04/16 04:03:26;;;;;;;1.92;0.50;;;18.40;42.30;;;;;;20911320;28;20068;-23
2021/04/16 04:13:27;;;;;;;3.75;0.40;;;18.40;42.00;;;;;;20908432;28;20488;-23
2021/04/16 04:23:28;;;;;;;3.45;0.65;;;18.70;41.90;;;;;;20909848;28;20067;-24
2021/04/16 04:33:28;;;;;;;9.05;1.23;;;19.40;39.80;;;;;;20908878;28;20453;-23
2021/04/16 04:43:29;;;;;;;17.27;3.28;;;20.00;38.80;;;;;;20907046;28;20083;-23
2021/04/16 04:53:30;;;;;;;27.33;4.72;;;20.50;38.10;;;;;;20907865;28;20111;-23
2021/04/16 05:03:30;;;;;;;16.55;3.30;;;21.50;36.70;;;;;;20984635;22;20036;-21
2021/04/16 05:13:31;;;;;;;10.55;2.40;;;22.40;35.60;;;;;;20993586;28;20402;-20
2021/04/16 05:23:32;;;;;;;20.65;2.03;;;22.80;35.60;;;;;;20980883;28;20028;-22
2021/04/16 05:33:33;;;;;;;12.80;1.83;;;23.00;35.70;;;;;;20979200;28;20346;-20
2021/04/16 05:43:33;;;;;;;8.85;2.22;;;22.90;36.20;;;;;;20978472;28;20028;-20
2021/04/16 05:53:34;;;;;;;11.17;1.77;;;22.70;36.40;;;;;;20975023;28;20086;-20
2021/04/16 06:03:35;;;;;;;10.05;1.98;;;22.40;36.90;;;;;;20976151;28;20494;-20
2021/04/16 06:13:37;;;;;;;9.82;3.55;;;22.30;37.40;;;;;;20971014;28;20087;-20
2021/04/16 06:23:38;;;;;;;9.43;1.67;;;22.20;37.60;;;;;;20945188;28;20115;-20
2021/04/16 06:33:38;;;;;;;4.28;1.35;;;22.20;38.00;;;;;;20922833;28;20060;-21
2021/04/16 06:43:47;;;;;;;8.27;1.30;;;22.30;37.70;;;;;;20966837;28;20059;-21
2021/04/16 06:53:56;;;;;;;12.30;1.53;;;22.30;37.70;;;;;;20968734;28;20033;-21
2021/04/16 07:04:37;;;;;;;10.00;1.70;;;22.40;37.70;;;;;;20948791;28;20044;-22
2021/04/16 07:14:44;;;;;;;5.63;1.33;;;22.40;37.70;;;;;;20988916;28;20029;-22
2021/04/16 07:24:46;;;;;;;10.40;2.03;;;22.20;38.10;;;;;;20957676;28;20053;-22
2021/04/16 07:34:48;;;;;;;5.75;1.00;;;22.20;38.40;;;;;;20932168;28;20032;-22
2021/04/16 07:45:07;;;;;;;10.07;1.55;;;22.00;38.50;;;;;;20946954;28;20033;-22
2021/04/16 07:55:22;;;;;;;9.10;1.45;;;21.90;39.20;;;;;;20965297;28;20029;-22
2021/04/16 08:05:26;;;;;;;6.47;1.15;;;21.90;39.00;;;;;;20973761;28;20048;-22
2021/04/16 08:15:28;;;;;;;6.53;1.25;;;22.10;39.10;;;;;;20930987;28;20035;-22
2021/04/16 08:25:41;;;;;;;4.40;1.13;;;22.00;39.30;;;;;;20949031;28;20036;-21
2021/04/16 08:35:56;;;;;;;4.57;0.70;;;22.00;39.40;;;;;;20965286;28;20170;-21
2021/04/16 08:45:59;;;;;;;3.42;1.48;;;21.90;39.50;;;;;;20968038;28;20043;-22
2021/04/16 08:56:25;;;;;;;3.08;0.90;;;21.80;39.70;;;;;;20971205;28;20035;-22
2021/04/16 09:06:42;;;;;;;6.07;1.20;;;21.70;40.30;;;;;;20949623;28;20048;-22
2021/04/16 09:16:56;;;;;;;2.53;0.70;;;21.80;40.30;;;;;;20981245;28;20024;-21
2021/04/16 09:26:58;;;;;;;2.13;0.80;;;21.90;40.30;;;;;;20939740;28;20028;-21
2021/04/16 09:37:24;;;;;;;7.78;1.13;;;21.90;40.20;;;;;;20952081;28;20078;-21
2021/04/16 09:47:48;;;;;;;5.53;0.95;;;21.90;40.20;;;;;;20936192;28;20036;-22
2021/04/16 09:57:49;;;;;;;4.32;0.55;;;21.90;40.20;;;;;;20985464;28;20127;-21
2021/04/16 10:07:49;;;;;;;3.53;1.10;;;21.80;40.20;;;;;;20967833;28;20064;-22
2021/04/16 10:17:55;;;;;;;4.78;0.57;;;21.70;40.50;;;;;;20971660;28;20032;-22
2021/04/16 10:29:09;;;;;;;3.22;1.08;;;21.80;40.30;;;;;;20955098;28;20526;-22
2021/04/16 10:50:48;;;;;;;14.88;1.05;;;21.60;42.00;;;;;;20982472;28;20107;-20
2021/04/16 12:43:12;;;;;;;2.03;0.77;;;21.60;44.50;;;;;;20966463;22;20068;-26
2021/04/16 12:53:13;;;;;;;3.10;0.90;;;21.40;44.90;;;;;;20979127;28;20039;-22
2021/04/16 13:03:17;;;;;;;9.67;1.13;;;21.10;45.50;;;;;;20986281;28;20032;-24
2021/04/16 13:13:18;;;;;;;5.85;0.77;;;20.90;45.90;;;;;;20980485;28;20874;-23
2021/04/16 13:23:19;;;;;;;6.20;0.80;;;20.80;46.30;;;;;;20991139;28;20052;-23
2021/04/16 13:33:19;;;;;;;2.57;1.10;;;20.50;46.30;;;;;;20989336;28;20546;-23
2021/04/16 13:43:21;;;;;;;2.60;1.05;;;20.10;43.40;;;;;;20987328;28;20493;-23
2021/04/16 13:53:21;;;;;;;1.65;0.88;;;19.90;38.20;;;;;;20973937;28;20048;-23
2021/04/16 14:03:43;;;;;;;2.77;0.90;;;19.50;39.60;;;;;;20960167;28;20036;-23
2021/04/16 14:13:44;;;;;;;3.90;0.68;;;19.40;40.40;;;;;;20956465;28;20410;-23
2021/04/16 14:23:46;;;;;;;1.55;0.70;;;19.30;39.10;;;;;;20949914;28;20025;-23
2021/04/16 14:33:47;;;;;;;13.70;1.27;;;19.20;39.40;;;;;;20944450;28;20031;-23
2021/04/16 14:43:47;;;;;;;2.55;0.90;;;19.00;38.30;;;;;;20935465;28;20487;-23
2021/04/16 14:53:52;;;;;;;4.78;1.55;;;19.00;37.60;;;;;;20947882;28;20086;-22
2021/04/16 15:03:52;;;;;;;2.20;0.68;;;18.90;39.00;;;;;;20941121;28;20033;-22
2021/04/16 15:13:53;;;;;;;1.52;0.70;;;18.90;38.10;;;;;;20936164;28;20075;-23
2021/04/16 15:23:53;;;;;;;3.47;0.95;;;18.80;34.90;;;;;;20943309;28;20040;-23
2021/04/16 15:54:18;;;;;;;2.58;0.50;;;19.20;35.20;;;;;;20957276;28;20470;-23
2021/04/16 16:04:18;;;;;;;3.10;0.40;;;20.60;30.60;;;;;;20952704;28;20107;-23
2021/04/16 16:14:25;;;;;;;3.88;0.65;;;21.60;30.10;;;;;;20945054;28;20063;-23
2021/04/16 16:24:26;;;;;;;0.80;0.30;;;21.90;29.60;;;;;;20968416;28;20036;-23
2021/04/16 16:34:29;;;;;;;1.00;0.32;;;22.40;31.60;;;;;;20957297;28;20494;-23
2021/04/16 16:44:34;;;;;;;2.15;0.60;;;23.00;32.40;;;;;;20956715;28;20033;-23
2021/04/16 16:54:35;;;;;;;2.22;0.43;;;22.90;33.40;;;;;;20945860;28;20056;-23
2021/04/16 17:04:36;;;;;;;9.30;0.65;;;22.70;34.00;;;;;;20948051;28;20032;-23
2021/04/16 17:14:40;;;;;;;3.85;0.90;;;22.50;36.40;;;;;;20952561;28;20086;-23
2021/04/16 17:24:41;;;;;;;19.52;0.90;;;22.70;37.00;;;;;;20944434;28;20020;-23
2021/04/16 17:34:41;;;;;;;4.18;0.68;;;23.30;36.50;;;;;;20959670;28;20035;-23
2021/04/16 17:44:42;;;;;;;3.55;0.73;;;23.50;36.40;;;;;;20971892;28;20129;-23
2021/04/16 17:54:42;;;;;;;5.93;1.30;;;23.50;36.80;;;;;;20942574;28;20025;-23
2021/04/16 18:04:43;;;;;;;4.93;0.80;;;23.30;37.70;;;;;;20940549;28;20040;-23
2021/04/16 18:14:43;;;;;;;2.15;0.60;;;23.40;37.90;;;;;;20938236;28;20486;-23
2021/04/16 18:24:44;;;;;;;5.95;1.05;;;23.70;38.10;;;;;;20946194;28;20028;-23
2021/04/16 18:34:46;;;;;;;4.17;0.87;;;24.00;37.50;;;;;;20939924;28;20021;-23
2021/04/16 18:44:49;;;;;;;3.45;0.50;;;24.00;37.70;;;;;;20942785;28;20521;-23
2021/04/16 18:54:51;;;;;;;5.45;0.70;;;24.00;37.90;;;;;;20952478;28;20514;-24
2021/04/16 19:04:52;;;;;;;1.77;0.57;;;23.90;38.40;;;;;;20950377;28;20064;-24
2021/04/16 19:14:55;;;;;;;2.33;0.43;;;23.80;38.70;;;;;;20956356;28;20102;-24
2021/04/16 19:24:59;;;;;;;3.05;1.30;;;24.00;38.60;;;;;;20959914;28;20479;-24
2021/04/16 19:34:59;;;;;;;1.73;0.40;;;23.80;38.90;;;;;;20956259;28;20049;-24
2021/04/16 19:45:00;;;;;;;2.20;0.40;;;23.70;39.20;;;;;;20952186;28;20064;-23
2021/04/16 20:26:05;;;;;;;6.18;1.52;;;23.70;39.90;;;;;;20962279;28;20028;-22
2021/04/16 20:36:11;;;;;;;3.65;0.47;;;23.60;40.20;;;;;;20961788;28;20060;-22
2021/04/16 20:46:19;;;;;;;6.45;0.70;;;23.40;40.60;;;;;;20968704;28;20044;-23
2021/04/16 20:56:20;;;;;;;1.45;0.40;;;23.50;40.30;;;;;;20953251;28;20025;-23
2021/04/16 21:06:22;;;;;;;2.15;0.77;;;23.50;40.50;;;;;;20957086;28;20491;-22
2021/04/16 21:16:28;;;;;;;2.05;0.38;;;23.40;40.60;;;;;;20940158;28;20037;-22
2021/04/16 21:26:33;;;;;;;1.90;0.40;;;23.50;40.50;;;;;;20957516;28;20025;-22
2021/04/16 21:36:36;;;;;;;1.92;0.50;;;23.60;40.40;;;;;;20939659;28;20031;-22
2021/04/16 21:46:41;;;;;;;1.55;0.40;;;23.50;40.60;;;;;;20948868;28;20541;-22
2021/04/16 21:56:42;;;;;;;2.45;0.50;;;23.40;40.70;;;;;;20937734;28;20021;-22
2021/04/16 22:06:44;;;;;;;3.03;0.60;;;23.30;40.90;;;;;;20963657;28;20522;-21
2021/04/16 22:16:49;;;;;;;3.60;0.50;;;23.40;40.80;;;;;;20961189;28;20399;-22
2021/04/16 22:26:50;;;;;;;1.48;0.28;;;23.30;41.20;;;;;;20946951;28;20040;-22
2021/04/16 22:36:52;;;;;;;0.75;0.45;;;23.20;41.20;;;;;;20948735;28;20028;-21
2021/04/16 22:47:16;;;;;;;1.20;0.63;;;23.30;40.90;;;;;;20953151;28;20041;-22
2021/04/16 22:57:24;;;;;;;2.22;0.30;;;23.30;41.10;;;;;;20970207;28;20040;-22
2021/04/16 23:07:32;;;;;;;;;;;23.30;41.10;;;;;;20966002;28;20033;-22
2021/04/16 23:17:33;;;;;;;1.17;0.40;;;23.30;41.00;;;;;;20957103;28;19965;-23
2021/04/16 23:27:38;;;;;;;3.67;0.43;;;23.30;41.20;;;;;;20970193;28;20120;-23
2021/04/16 23:37:44;;;;;;;1.55;0.40;;;23.10;41.60;;;;;;20980032;28;20025;-23
2021/04/16 23:47:45;;;;;;;2.17;0.50;;;23.10;41.50;;;;;;20973831;28;20028;-23
2021/04/16 23:57:45;;;;;;;1.10;0.40;;;23.10;41.50;;;;;;20951915;28;20091;-23
